Ave Maria, Florida
Current Conditions -  °F | °C
As of 2:55 AM on Friday 24 Oct 2014 (Local Time) from KIMM Reporting Station
Clear Clear  
Wind Chill: 66°   Ceiling: Unl
Heat Index: 66°   Visibility: 10mi
Dew Point: 66°   Wind: 8mph
Humidity: 100%   Direction: 10°N
Pressure: 29.91"   Gusts: NA
Location:  26.4288°N, 81.4387°W
Report Text: KIMM 240655Z AUTO 01007KT 10SM CLR 19/19 A2991 RMK A01 P000
Loading
Personal Weather Stations






























Interactive Weather Map
Tropical Storm Tracking
New forecast layout! Learn more

10-Day Weather Forecast

Advertisements
Track Severe Weather on mobile